Time;durP1;ratioP1;P1;durP2;ratioP2;P2;SDS_P1;SDS_P2;PMS_P1;PMS_P2;Temp;Humidity;BMP_temperature;BMP_pressure;BME280_temperature;BME280_humidity;BME280_pressure;Samples;Min_cycle;Max_cycle;Signal;HPM_P1;HPM_P2
2023/03/06 00:00:46;;;;;;;9.88;5.13;;;10.00;82.60;;;;;;7383534;19;19943;-73
2023/03/06 00:03:14;;;;;;;9.95;5.15;;;10.10;82.70;;;;;;7395655;19;20529;-73
2023/03/06 00:05:39;;;;;;;9.27;5.53;;;10.10;82.90;;;;;;7404223;19;19929;-74
2023/03/06 00:08:05;;;;;;;9.15;4.90;;;10.10;83.20;;;;;;7401075;19;19919;-74
2023/03/06 00:10:32;;;;;;;11.07;4.97;;;10.00;83.30;;;;;;7401678;19;20375;-73
2023/03/06 00:13:01;;;;;;;11.10;6.05;;;10.10;83.20;;;;;;7408060;19;19910;-73
2023/03/06 00:15:27;;;;;;;10.68;5.28;;;10.10;83.60;;;;;;7380473;19;20589;-73
2023/03/06 00:17:54;;;;;;;11.90;6.07;;;10.10;83.60;;;;;;7404651;19;19914;-73
2023/03/06 00:20:22;;;;;;;12.05;6.25;;;10.10;83.90;;;;;;7402816;19;19910;-73
2023/03/06 00:22:48;;;;;;;13.55;6.18;;;10.10;83.90;;;;;;7401459;19;19919;-74
2023/03/06 00:25:16;;;;;;;12.65;6.28;;;10.10;83.80;;;;;;7379623;19;19911;-74
2023/03/06 00:27:42;;;;;;;13.82;6.20;;;10.00;83.90;;;;;;7372835;19;19926;-73
2023/03/06 00:30:16;;;;;;;12.27;5.65;;;10.00;84.00;;;;;;7400964;19;19914;-73
2023/03/06 00:32:42;;;;;;;10.30;5.75;;;10.00;84.00;;;;;;7401663;19;19921;-73
2023/03/06 00:35:09;;;;;;;11.63;6.43;;;10.00;84.90;;;;;;7401731;19;20737;-73
2023/03/06 00:37:36;;;;;;;12.70;6.85;;;10.00;84.70;;;;;;7397841;19;19934;-74
2023/03/06 00:40:05;;;;;;;14.02;6.82;;;9.90;84.90;;;;;;7404654;19;19915;-73
2023/03/06 00:42:30;;;;;;;11.10;6.38;;;10.00;85.00;;;;;;7400798;19;20283;-73
2023/03/06 00:44:56;;;;;;;14.35;7.32;;;10.00;85.20;;;;;;7406201;19;19981;-73
2023/03/06 00:47:22;;;;;;;14.50;7.72;;;10.00;85.30;;;;;;7402047;19;21190;-73
2023/03/06 00:49:49;;;;;;;13.48;7.57;;;10.00;85.90;;;;;;7402748;19;19919;-74
2023/03/06 00:52:15;;;;;;;13.20;7.80;;;10.00;86.00;;;;;;7401077;19;19915;-73
2023/03/06 00:54:41;;;;;;;14.00;7.70;;;10.10;86.20;;;;;;7403540;19;20403;-73
2023/03/06 00:57:07;;;;;;;15.25;7.57;;;10.10;86.50;;;;;;7400122;19;19946;-74
2023/03/06 00:59:33;;;;;;;13.10;7.55;;;10.10;86.60;;;;;;7403102;19;19929;-73
2023/03/06 01:01:59;;;;;;;11.32;7.20;;;10.10;86.60;;;;;;7404766;19;19962;-73
2023/03/06 01:04:26;;;;;;;13.57;6.63;;;10.00;87.20;;;;;;7401927;19;20246;-73
2023/03/06 01:06:52;;;;;;;;;;;10.10;86.60;;;;;;7407245;19;19914;-73
2023/03/06 01:09:17;;;;;;;12.73;6.28;;;10.00;86.90;;;;;;7399269;19;19943;-73
2023/03/06 01:11:43;;;;;;;12.60;6.53;;;10.00;87.10;;;;;;7405826;19;19914;-73
2023/03/06 01:14:09;;;;;;;12.88;7.32;;;10.10;87.50;;;;;;7401362;19;19919;-74
2023/03/06 01:16:35;;;;;;;13.30;6.93;;;10.10;86.80;;;;;;7402249;19;19923;-73
2023/03/06 01:19:00;;;;;;;13.65;7.25;;;10.10;86.70;;;;;;7402688;19;20316;-73
2023/03/06 01:21:26;;;;;;;12.82;6.95;;;10.10;86.70;;;;;;7401956;19;20015;-73
2023/03/06 01:23:52;;;;;;;15.57;7.40;;;10.10;86.60;;;;;;7402900;19;20243;-73
2023/03/06 01:26:18;;;;;;;14.65;7.65;;;10.10;86.70;;;;;;7401042;19;20712;-74
2023/03/06 01:28:44;;;;;;;14.27;7.30;;;10.00;86.90;;;;;;7402583;19;19953;-73
2023/03/06 01:31:10;;;;;;;14.00;6.88;;;10.00;87.10;;;;;;7401577;19;19918;-74
2023/03/06 01:33:37;;;;;;;12.52;7.13;;;10.00;87.40;;;;;;7404279;19;19982;-73
2023/03/06 01:36:10;;;;;;;13.90;7.65;;;10.00;87.40;;;;;;7406515;19;20414;-74
2023/03/06 01:38:35;;;;;;;12.70;7.07;;;10.00;87.60;;;;;;7409435;19;19922;-73
2023/03/06 01:41:03;;;;;;;12.20;6.90;;;10.00;87.60;;;;;;7406768;19;19915;-74
2023/03/06 01:43:34;;;;;;;12.85;6.93;;;9.90;87.70;;;;;;7409392;19;19998;-75
2023/03/06 01:46:30;;;;;;;11.65;6.32;;;9.90;87.90;;;;;;7409563;19;19937;-75
2023/03/06 01:49:07;;;;;;;12.80;7.25;;;9.90;87.90;;;;;;7408626;19;19915;-73
2023/03/06 01:51:39;;;;;;;10.65;6.68;;;9.90;87.90;;;;;;7405754;19;19907;-74
2023/03/06 01:54:14;;;;;;;14.93;7.32;;;9.80;88.00;;;;;;7408478;19;19918;-74
2023/03/06 01:56:43;;;;;;;11.63;7.05;;;9.80;88.10;;;;;;7410820;19;19914;-74
2023/03/06 01:59:09;;;;;;;12.90;6.97;;;9.80;88.20;;;;;;7406285;19;20059;-74
2023/03/06 02:01:38;;;;;;;13.90;6.80;;;9.80;88.60;;;;;;7408999;19;19926;-73
2023/03/06 02:04:05;;;;;;;11.18;6.65;;;9.80;88.60;;;;;;7383406;19;19915;-73
2023/03/06 02:06:34;;;;;;;12.88;7.28;;;9.70;88.80;;;;;;7407498;19;19914;-73
2023/03/06 02:09:02;;;;;;;13.95;6.70;;;9.70;89.20;;;;;;7407675;19;20366;-73
2023/03/06 02:11:28;;;;;;;13.32;7.13;;;9.80;89.20;;;;;;7383345;19;20711;-72
2023/03/06 02:13:54;;;;;;;13.43;7.10;;;9.80;89.30;;;;;;7409427;19;19918;-73
2023/03/06 02:16:24;;;;;;;14.68;6.93;;;9.80;89.60;;;;;;7408663;19;19923;-73
2023/03/06 02:18:50;;;;;;;13.40;7.72;;;9.70;89.50;;;;;;7408808;19;20256;-73
2023/03/06 02:21:24;;;;;;;14.48;7.28;;;9.70;89.50;;;;;;7404269;19;19919;-73
2023/03/06 02:24:01;;;;;;;14.27;7.53;;;9.70;89.40;;;;;;7410597;19;19918;-74
2023/03/06 02:26:28;;;;;;;10.95;7.00;;;9.70;89.50;;;;;;7405402;19;19922;-74
2023/03/06 02:28:56;;;;;;;12.38;7.47;;;9.60;89.60;;;;;;7408544;19;19919;-73
2023/03/06 02:31:28;;;;;;;14.82;7.60;;;9.60;89.70;;;;;;7404407;19;21053;-74
2023/03/06 02:34:14;;;;;;;14.05;8.02;;;9.60;90.00;;;;;;7408829;19;19919;-73
2023/03/06 02:36:46;;;;;;;13.85;7.95;;;9.50;90.10;;;;;;7407690;19;19931;-74
2023/03/06 02:39:13;;;;;;;12.65;7.57;;;9.50;90.20;;;;;;7405323;19;20291;-73
2023/03/06 02:41:39;;;;;;;18.92;7.57;;;9.60;90.20;;;;;;7377707;19;19930;-74
2023/03/06 02:44:05;;;;;;;13.77;8.07;;;9.60;90.30;;;;;;7404820;19;19918;-73
2023/03/06 02:46:31;;;;;;;16.20;7.07;;;9.60;90.20;;;;;;7404080;19;19922;-73
2023/03/06 02:48:57;;;;;;;15.52;7.70;;;9.70;90.20;;;;;;7407145;19;19929;-73
2023/03/06 02:51:23;;;;;;;13.05;7.53;;;9.80;90.30;;;;;;7379507;19;20002;-73
2023/03/06 02:53:49;;;;;;;15.93;8.05;;;9.80;90.10;;;;;;7406910;19;19921;-74
2023/03/06 02:56:15;;;;;;;15.18;7.88;;;9.80;90.10;;;;;;7403190;19;19926;-72
2023/03/06 02:58:42;;;;;;;15.80;8.18;;;9.90;90.20;;;;;;7405132;19;20296;-73
2023/03/06 03:01:08;;;;;;;16.65;8.68;;;9.90;90.40;;;;;;7404079;19;19927;-74
2023/03/06 03:03:35;;;;;;;15.55;7.68;;;9.90;90.30;;;;;;7386766;19;19954;-73
2023/03/06 03:06:04;;;;;;;16.58;8.27;;;9.80;90.20;;;;;;7407568;19;19917;-74
2023/03/06 03:08:30;;;;;;;13.32;7.63;;;9.90;90.20;;;;;;7406430;19;19919;-74
2023/03/06 03:10:56;;;;;;;13.13;7.47;;;9.90;90.00;;;;;;7405044;19;19924;-73
2023/03/06 03:13:22;;;;;;;16.52;8.30;;;9.80;90.00;;;;;;7404915;19;19975;-75
2023/03/06 03:15:59;;;;;;;17.23;8.63;;;9.80;90.00;;;;;;7406882;19;20282;-73
2023/03/06 03:18:25;;;;;;;17.30;8.55;;;9.90;90.00;;;;;;7404438;19;19914;-73
2023/03/06 03:20:51;;;;;;;14.77;8.60;;;9.90;90.00;;;;;;7404531;19;19914;-73
2023/03/06 03:23:16;;;;;;;14.93;8.15;;;9.90;89.80;;;;;;7404861;19;19918;-74
2023/03/06 03:25:42;;;;;;;13.95;7.43;;;10.00;89.00;;;;;;7404686;19;19914;-73
2023/03/06 03:28:09;;;;;;;16.65;8.02;;;10.00;87.80;;;;;;7404260;19;19922;-73
2023/03/06 03:30:35;;;;;;;15.40;7.38;;;10.00;87.10;;;;;;7406601;19;19921;-73
2023/03/06 03:33:01;;;;;;;13.52;6.75;;;10.00;86.20;;;;;;7406400;19;19912;-73
2023/03/06 03:35:27;;;;;;;12.27;6.70;;;10.00;85.80;;;;;;7405831;19;20003;-73
2023/03/06 03:37:54;;;;;;;13.45;6.47;;;10.00;84.80;;;;;;7404660;19;19946;-72
2023/03/06 03:40:20;;;;;;;12.68;6.57;;;10.10;83.40;;;;;;7404050;19;19915;-74
2023/03/06 03:42:45;;;;;;;13.68;6.82;;;10.20;82.10;;;;;;7406247;19;19925;-73
2023/03/06 03:45:11;;;;;;;11.65;6.28;;;10.20;82.50;;;;;;7405037;19;19915;-74
2023/03/06 03:47:37;;;;;;;13.25;6.45;;;10.20;83.70;;;;;;7405687;19;20353;-73
2023/03/06 03:50:03;;;;;;;11.18;6.50;;;10.10;83.70;;;;;;7403644;19;19926;-72
2023/03/06 03:52:29;;;;;;;10.52;6.22;;;10.10;83.80;;;;;;7405319;19;19910;-73
2023/03/06 03:54:55;;;;;;;14.25;6.30;;;10.20;84.10;;;;;;7404535;19;20214;-73
2023/03/06 03:57:20;;;;;;;12.52;6.72;;;10.10;84.10;;;;;;7405889;19;19994;-73
2023/03/06 03:59:46;;;;;;;12.65;6.43;;;10.20;84.10;;;;;;7404617;19;19914;-73
2023/03/06 04:02:13;;;;;;;15.75;6.90;;;10.20;83.70;;;;;;7400501;19;19923;-74
2023/03/06 04:04:39;;;;;;;14.00;6.30;;;10.30;83.20;;;;;;7404460;19;19915;-73
2023/03/06 04:07:05;;;;;;;11.35;6.68;;;10.30;83.50;;;;;;7402134;19;19941;-73
2023/03/06 04:09:31;;;;;;;14.02;8.05;;;10.30;83.70;;;;;;7406644;19;19914;-73
2023/03/06 04:11:56;;;;;;;14.23;7.78;;;10.40;83.70;;;;;;7404474;19;19914;-73
2023/03/06 04:14:22;;;;;;;17.08;7.25;;;10.30;83.60;;;;;;7403143;19;19930;-73
2023/03/06 04:16:48;;;;;;;14.05;6.55;;;10.30;83.50;;;;;;7403416;19;19922;-74
2023/03/06 04:19:14;;;;;;;15.52;7.22;;;10.30;82.90;;;;;;7403600;19;19918;-74
2023/03/06 04:21:40;;;;;;;13.77;6.50;;;10.40;81.90;;;;;;7403146;19;20002;-74
2023/03/06 04:24:06;;;;;;;11.38;6.55;;;10.30;81.70;;;;;;7403768;19;19915;-73
2023/03/06 04:26:31;;;;;;;14.10;6.97;;;10.30;81.70;;;;;;7401379;19;20320;-72
2023/03/06 04:28:57;;;;;;;12.02;6.53;;;10.30;80.80;;;;;;7405341;19;19922;-74
2023/03/06 04:31:23;;;;;;;14.50;7.00;;;10.30;80.30;;;;;;7401809;19;19932;-72
2023/03/06 04:33:49;;;;;;;12.98;7.00;;;10.30;79.90;;;;;;7404803;19;19925;-73
2023/03/06 04:36:35;;;;;;;15.13;7.88;;;10.20;79.80;;;;;;7399246;19;19918;-74
2023/03/06 04:39:02;;;;;;;14.35;6.32;;;10.30;79.50;;;;;;7404527;19;20641;-74
2023/03/06 04:41:27;;;;;;;15.77;7.28;;;10.20;79.40;;;;;;7372630;19;20362;-74
2023/03/06 04:43:53;;;;;;;17.13;7.45;;;10.10;78.80;;;;;;7403487;19;19903;-73
2023/03/06 04:46:19;;;;;;;16.67;7.75;;;10.10;78.20;;;;;;7400447;19;19919;-73
2023/03/06 04:48:45;;;;;;;16.85;7.93;;;10.10;78.00;;;;;;7372598;19;19919;-73
2023/03/06 04:51:12;;;;;;;15.10;7.72;;;10.10;77.60;;;;;;7401152;19;19939;-73
2023/03/06 04:53:38;;;;;;;16.85;8.48;;;10.20;77.00;;;;;;7404371;19;19926;-73
2023/03/06 04:56:06;;;;;;;15.63;7.50;;;10.20;76.90;;;;;;7403659;19;20364;-73
2023/03/06 04:58:32;;;;;;;15.68;7.68;;;10.20;76.60;;;;;;7402763;19;20634;-72
2023/03/06 05:00:57;;;;;;;17.20;8.25;;;10.20;76.50;;;;;;7404351;19;19917;-73
2023/03/06 05:03:23;;;;;;;16.90;7.95;;;10.20;76.40;;;;;;7398846;19;19915;-73
2023/03/06 05:05:49;;;;;;;17.27;8.15;;;10.20;76.20;;;;;;7401458;19;19931;-74
2023/03/06 05:08:16;;;;;;;17.73;8.43;;;10.20;75.80;;;;;;7400874;19;19911;-73
2023/03/06 05:10:43;;;;;;;16.83;8.05;;;10.20;75.60;;;;;;7405742;19;20328;-73
2023/03/06 05:13:09;;;;;;;16.27;8.93;;;10.20;75.20;;;;;;7404892;19;19915;-73
2023/03/06 05:15:35;;;;;;;17.02;8.23;;;10.20;75.30;;;;;;7409381;19;20520;-74
2023/03/06 05:18:00;;;;;;;16.50;8.30;;;10.20;75.70;;;;;;7409377;19;19922;-73
2023/03/06 05:20:27;;;;;;;16.15;9.02;;;10.30;75.10;;;;;;7407702;19;19919;-73
2023/03/06 05:22:54;;;;;;;17.83;8.70;;;10.30;75.00;;;;;;7410900;19;19938;-74
2023/03/06 05:25:20;;;;;;;19.02;8.93;;;10.30;74.80;;;;;;7405424;19;19931;-73
2023/03/06 05:27:46;;;;;;;18.77;8.95;;;10.30;74.90;;;;;;7377360;19;19914;-73
2023/03/06 05:30:12;;;;;;;19.05;8.77;;;10.40;74.90;;;;;;7407195;19;19918;-74
2023/03/06 05:32:38;;;;;;;17.77;9.05;;;10.40;74.80;;;;;;7410694;19;19922;-73
2023/03/06 05:35:05;;;;;;;20.83;8.20;;;10.40;74.90;;;;;;7407521;19;19951;-74
2023/03/06 05:37:31;;;;;;;17.13;9.23;;;10.30;75.30;;;;;;7409467;19;20364;-73
2023/03/06 05:39:57;;;;;;;18.42;8.82;;;10.20;76.10;;;;;;7409935;19;19921;-74
2023/03/06 05:42:23;;;;;;;23.50;10.15;;;10.10;77.50;;;;;;7405367;19;19938;-74
2023/03/06 05:44:49;;;;;;;18.00;8.27;;;10.10;78.20;;;;;;7409130;19;20343;-73
2023/03/06 05:47:15;;;;;;;17.50;9.25;;;10.00;78.30;;;;;;7408226;19;19931;-74
2023/03/06 05:49:42;;;;;;;18.80;9.95;;;10.00;78.40;;;;;;7408132;19;19922;-75
2023/03/06 05:52:09;;;;;;;19.02;9.60;;;10.00;78.40;;;;;;7408021;19;19918;-74
2023/03/06 05:54:36;;;;;;;17.75;9.20;;;10.00;78.50;;;;;;7411318;19;19918;-74
2023/03/06 05:57:04;;;;;;;14.98;9.05;;;10.00;78.30;;;;;;7377798;19;19914;-73
2023/03/06 05:59:31;;;;;;;18.73;9.23;;;9.90;77.30;;;;;;7408514;19;19923;-74
2023/03/06 06:01:59;;;;;;;18.17;8.85;;;9.80;76.50;;;;;;7410348;19;19923;-73
2023/03/06 06:04:25;;;;;;;19.15;9.10;;;9.80;75.80;;;;;;7409314;19;20355;-73
2023/03/06 06:06:57;;;;;;;20.58;9.25;;;9.70;74.80;;;;;;7409601;19;20608;-74
2023/03/06 06:09:23;;;;;;;18.58;8.95;;;9.70;74.50;;;;;;7408815;19;19927;-74
2023/03/06 06:11:57;;;;;;;15.77;8.38;;;9.70;74.60;;;;;;7408492;19;19919;-73
2023/03/06 06:14:23;;;;;;;18.50;8.23;;;9.80;74.70;;;;;;7407922;19;19926;-74
2023/03/06 06:16:50;;;;;;;15.65;7.80;;;9.80;74.30;;;;;;7411827;19;19921;-74
2023/03/06 06:19:19;;;;;;;17.42;8.05;;;9.90;73.60;;;;;;7401317;19;19933;-73
2023/03/06 06:21:47;;;;;;;14.07;7.57;;;9.90;73.60;;;;;;7408020;19;19915;-75
2023/03/06 06:24:15;;;;;;;15.27;8.00;;;10.00;73.50;;;;;;7405891;19;19928;-73
2023/03/06 06:26:41;;;;;;;15.73;8.48;;;10.00;73.40;;;;;;7411205;19;19935;-74
2023/03/06 06:29:09;;;;;;;16.50;7.93;;;10.10;73.50;;;;;;7408705;19;19914;-73
2023/03/06 06:31:35;;;;;;;15.70;7.72;;;10.10;73.40;;;;;;7406478;19;20239;-73
2023/03/06 06:34:05;;;;;;;17.35;8.55;;;10.10;73.40;;;;;;7403621;19;19936;-73
2023/03/06 06:36:31;;;;;;;14.85;7.80;;;10.10;74.40;;;;;;7407906;19;19929;-75
2023/03/06 06:38:58;;;;;;;17.80;7.80;;;10.20;74.40;;;;;;7409669;19;19915;-73
2023/03/06 06:41:24;;;;;;;17.80;8.50;;;10.20;75.20;;;;;;7409737;19;19994;-73
2023/03/06 06:43:49;;;;;;;13.77;7.75;;;10.30;75.80;;;;;;7408575;19;19911;-74
2023/03/06 06:46:15;;;;;;;19.00;8.55;;;10.30;76.70;;;;;;7407754;19;19962;-73
2023/03/06 06:48:41;;;;;;;16.30;8.23;;;10.30;77.30;;;;;;7406613;19;19918;-73
2023/03/06 06:51:07;;;;;;;18.42;9.35;;;10.30;77.80;;;;;;7405245;19;19922;-73
2023/03/06 06:53:33;;;;;;;20.70;8.93;;;10.30;78.10;;;;;;7372788;19;20353;-73
2023/03/06 06:55:59;;;;;;;19.85;8.82;;;10.40;78.40;;;;;;7407574;19;19931;-72
2023/03/06 06:58:25;;;;;;;18.63;8.88;;;10.30;78.80;;;;;;7403906;19;19955;-74
2023/03/06 07:00:51;;;;;;;18.30;9.00;;;10.40;79.00;;;;;;7406994;19;19919;-73
2023/03/06 07:03:17;;;;;;;18.42;9.10;;;10.40;79.40;;;;;;7406928;19;19926;-74
2023/03/06 07:05:44;;;;;;;17.83;9.55;;;10.40;79.30;;;;;;7407579;19;19919;-72
2023/03/06 07:08:12;;;;;;;16.45;8.70;;;10.30;78.80;;;;;;7404863;19;19929;-74
2023/03/06 07:10:40;;;;;;;16.15;8.38;;;10.40;79.00;;;;;;7406369;19;19929;-74
2023/03/06 07:13:06;;;;;;;18.73;8.48;;;10.40;78.90;;;;;;7402842;19;19922;-73
2023/03/06 07:15:32;;;;;;;19.30;9.95;;;10.40;78.70;;;;;;7406622;19;19935;-73
2023/03/06 07:18:00;;;;;;;17.38;9.27;;;10.40;79.00;;;;;;7405730;19;19918;-73
2023/03/06 07:20:25;;;;;;;19.50;9.90;;;10.50;79.30;;;;;;7404074;19;19953;-74
2023/03/06 07:22:51;;;;;;;19.00;9.90;;;10.50;79.90;;;;;;7405181;19;19907;-74
2023/03/06 07:25:17;;;;;;;20.50;9.88;;;10.50;80.60;;;;;;7406253;19;19918;-74
2023/03/06 07:27:43;;;;;;;22.98;10.15;;;10.60;81.00;;;;;;7405910;19;20320;-73
2023/03/06 07:30:12;;;;;;;20.25;10.25;;;10.70;81.20;;;;;;7404414;19;19918;-73
2023/03/06 07:32:38;;;;;;;18.50;9.77;;;10.70;81.20;;;;;;7404861;19;19909;-74
2023/03/06 07:35:05;;;;;;;19.67;10.55;;;10.80;81.00;;;;;;7403428;19;19978;-74
2023/03/06 07:37:30;;;;;;;;;;;10.80;80.70;;;;;;7376187;19;19978;-73
2023/03/06 07:39:56;;;;;;;20.38;9.02;;;10.90;80.20;;;;;;7407856;19;19935;-73
2023/03/06 07:42:23;;;;;;;19.25;9.98;;;11.00;79.80;;;;;;7402531;19;19931;-73
2023/03/06 07:44:49;;;;;;;;;;;11.10;79.60;;;;;;7408273;19;19974;-74
2023/03/06 07:47:15;;;;;;;17.58;9.02;;;11.10;79.10;;;;;;7406020;19;20251;-74
2023/03/06 07:49:41;;;;;;;17.98;9.93;;;11.30;79.10;;;;;;7374420;19;19919;-73
2023/03/06 07:52:06;;;;;;;18.67;10.13;;;11.40;78.80;;;;;;7371334;19;19907;-74
2023/03/06 07:54:34;;;;;;;19.00;9.25;;;11.50;78.90;;;;;;7407755;19;19924;-74
2023/03/06 07:57:00;;;;;;;20.67;10.32;;;11.70;78.70;;;;;;7406628;19;20274;-74
2023/03/06 07:59:26;;;;;;;22.38;11.13;;;11.80;79.00;;;;;;7405071;19;19931;-74
2023/03/06 08:01:54;;;;;;;20.23;10.38;;;11.90;79.50;;;;;;7404936;19;19911;-74
2023/03/06 08:04:20;;;;;;;21.27;11.23;;;12.00;79.40;;;;;;7403466;19;19918;-73
2023/03/06 08:06:46;;;;;;;25.08;10.48;;;12.10;79.50;;;;;;7406185;19;20339;-74
2023/03/06 08:09:11;;;;;;;21.15;11.48;;;12.30;79.90;;;;;;7402313;19;19954;-73
2023/03/06 08:11:37;;;;;;;24.23;11.38;;;12.50;80.10;;;;;;7404122;19;19922;-74
2023/03/06 08:14:03;;;;;;;25.25;12.15;;;12.60;79.80;;;;;;7403805;19;19990;-74
2023/03/06 08:16:29;;;;;;;23.48;12.02;;;12.80;80.00;;;;;;7398553;19;19921;-74
2023/03/06 08:18:56;;;;;;;24.58;12.07;;;13.00;80.20;;;;;;7404887;19;19918;-75
2023/03/06 08:21:26;;;;;;;22.05;12.07;;;13.00;80.00;;;;;;7401172;19;19938;-74
2023/03/06 08:23:52;;;;;;;19.73;11.82;;;13.20;79.80;;;;;;7381360;19;19927;-74
2023/03/06 08:26:29;;;;;;;22.83;12.32;;;13.30;80.10;;;;;;7402118;19;19933;-75
2023/03/06 08:28:58;;;;;;;22.80;12.18;;;13.30;80.40;;;;;;7402630;19;20036;-75
2023/03/06 08:31:53;;;;;;;25.88;13.07;;;13.40;80.40;;;;;;7403334;19;20291;-75
2023/03/06 08:34:23;;;;;;;22.55;12.25;;;13.50;80.30;;;;;;7401468;19;20617;-74
2023/03/06 08:36:49;;;;;;;21.40;11.98;;;13.60;80.20;;;;;;7405010;19;19943;-74
2023/03/06 08:39:15;;;;;;;25.42;12.90;;;13.50;80.60;;;;;;7402936;19;20296;-74
2023/03/06 08:41:41;;;;;;;24.45;13.43;;;13.60;81.20;;;;;;7404380;19;19919;-74
2023/03/06 08:44:07;;;;;;;25.92;14.70;;;13.60;81.60;;;;;;7394660;19;19939;-75
2023/03/06 08:46:34;;;;;;;26.52;15.60;;;13.80;81.70;;;;;;7403519;19;19922;-73
2023/03/06 08:49:00;;;;;;;;;;;13.90;82.10;;;;;;7409268;19;19918;-74
2023/03/06 08:51:27;;;;;;;23.98;13.30;;;13.70;81.90;;;;;;7399682;19;20320;-74
2023/03/06 08:53:54;;;;;;;27.15;12.80;;;13.80;82.50;;;;;;7403383;19;19925;-75
2023/03/06 08:56:22;;;;;;;25.73;12.98;;;13.90;82.40;;;;;;7402408;19;20255;-74
2023/03/06 08:58:49;;;;;;;22.27;12.25;;;13.90;82.20;;;;;;7405418;19;19923;-74
2023/03/06 09:01:25;;;;;;;24.35;13.48;;;14.00;82.50;;;;;;7404085;19;19962;-74
2023/03/06 09:03:58;;;;;;;23.45;12.55;;;14.10;82.20;;;;;;7396351;19;19914;-75
2023/03/06 09:06:25;;;;;;;22.10;12.90;;;14.30;81.90;;;;;;7396499;19;20517;-74
2023/03/06 09:08:52;;;;;;;23.33;13.63;;;14.30;81.90;;;;;;7392740;19;19918;-74
2023/03/06 09:11:20;;;;;;;22.42;12.75;;;14.30;81.90;;;;;;7391483;19;19927;-74
2023/03/06 09:13:45;;;;;;;25.15;14.43;;;14.50;81.60;;;;;;7385299;19;19918;-75
2023/03/06 09:16:12;;;;;;;21.15;13.02;;;14.80;80.70;;;;;;7393049;19;19933;-74
2023/03/06 09:18:38;;;;;;;24.60;14.88;;;14.80;81.00;;;;;;7395854;19;20037;-75
2023/03/06 09:21:05;;;;;;;25.02;13.25;;;14.70;80.90;;;;;;7398023;19;20354;-75
2023/03/06 09:23:31;;;;;;;25.20;13.93;;;14.80;81.10;;;;;;7372610;19;19915;-73
2023/03/06 09:25:59;;;;;;;25.13;13.52;;;14.60;81.20;;;;;;7402277;19;19919;-75
2023/03/06 09:28:25;;;;;;;25.48;13.35;;;14.70;81.30;;;;;;7390599;19;19922;-75
2023/03/06 09:30:51;;;;;;;24.15;13.73;;;14.80;81.20;;;;;;7401799;19;19915;-76
2023/03/06 09:33:18;;;;;;;21.65;13.27;;;14.90;80.00;;;;;;7397979;19;20271;-74
2023/03/06 09:35:53;;;;;;;21.67;13.40;;;15.10;79.50;;;;;;7378251;19;19941;-74
2023/03/06 09:38:20;;;;;;;25.42;13.27;;;15.10;79.30;;;;;;7382035;19;19918;-74
2023/03/06 09:41:18;;;;;;;24.25;14.18;;;15.20;79.00;;;;;;7384345;19;19948;-75
2023/03/06 09:43:47;;;;;;;25.05;14.30;;;15.20;78.10;;;;;;7396351;19;19922;-75
2023/03/06 09:46:27;;;;;;;24.67;13.80;;;15.10;78.20;;;;;;7391394;19;20294;-75
2023/03/06 09:49:22;;;;;;;27.33;13.90;;;15.00;78.40;;;;;;7405076;19;20272;-75
2023/03/06 09:52:01;;;;;;;23.38;13.45;;;14.90;79.20;;;;;;7398510;19;19925;-74
2023/03/06 09:54:48;;;;;;;23.27;13.05;;;14.80;78.90;;;;;;7394722;19;19917;-76
2023/03/06 09:57:25;;;;;;;26.17;15.55;;;14.80;79.20;;;;;;7403759;19;20303;-75
2023/03/06 09:59:55;;;;;;;26.73;14.57;;;14.70;79.10;;;;;;7411104;19;19938;-75
2023/03/06 10:02:32;;;;;;;24.95;13.68;;;14.80;79.30;;;;;;7397250;19;19914;-75
2023/03/06 10:05:02;;;;;;;23.33;13.65;;;15.20;78.90;;;;;;7406542;19;19950;-75
2023/03/06 10:07:43;;;;;;;26.92;15.40;;;15.90;77.40;;;;;;7396740;19;19944;-75
2023/03/06 10:10:42;;;;;;;24.30;14.30;;;16.50;75.50;;;;;;7401200;19;20336;-74
2023/03/06 10:13:29;;;;;;;25.75;13.60;;;16.60;74.90;;;;;;7398555;19;19915;-77
2023/03/06 10:16:28;;;;;;;24.63;13.63;;;17.00;74.40;;;;;;7369609;19;20260;-74
2023/03/06 10:19:00;;;;;;;23.65;13.48;;;16.80;74.30;;;;;;7403626;19;19918;-76
2023/03/06 10:21:36;;;;;;;24.02;14.23;;;16.60;74.70;;;;;;7400965;19;19925;-76
2023/03/06 10:24:41;;;;;;;25.90;14.15;;;16.60;75.30;;;;;;7400812;19;19979;-73
2023/03/06 10:27:15;;;;;;;25.80;14.73;;;16.30;75.10;;;;;;7387294;19;19922;-74
2023/03/06 10:30:15;;;;;;;24.75;13.75;;;16.40;75.80;;;;;;7389920;19;19915;-74
2023/03/06 10:32:47;;;;;;;25.80;13.90;;;16.50;75.70;;;;;;7402968;19;20796;-74
2023/03/06 10:35:27;;;;;;;25.10;14.65;;;16.60;75.90;;;;;;7402253;19;19918;-74
2023/03/06 10:38:17;;;;;;;22.55;13.20;;;16.20;75.70;;;;;;7367514;19;19906;-73
2023/03/06 10:41:10;;;;;;;25.10;13.45;;;15.90;76.90;;;;;;7393199;19;19914;-76
2023/03/06 10:43:41;;;;;;;23.38;14.20;;;16.00;76.60;;;;;;7396534;19;20345;-74
2023/03/06 10:46:09;;;;;;;22.58;13.70;;;16.10;76.90;;;;;;7405754;19;19926;-75
2023/03/06 10:48:37;;;;;;;26.50;14.60;;;17.00;75.50;;;;;;7402386;19;19914;-74
2023/03/06 10:51:21;;;;;;;26.30;15.35;;;17.30;73.70;;;;;;7387519;19;20270;-74
2023/03/06 10:53:54;;;;;;;25.17;14.82;;;17.70;72.40;;;;;;7397076;19;20363;-75
2023/03/06 10:56:38;;;;;;;24.67;14.05;;;18.30;72.10;;;;;;7403558;19;19926;-75
2023/03/06 10:59:13;;;;;;;23.38;14.43;;;17.60;72.80;;;;;;7392281;19;19918;-76
2023/03/06 11:01:44;;;;;;;25.27;14.50;;;17.80;72.90;;;;;;7386023;19;19983;-74
2023/03/06 11:04:19;;;;;;;24.02;14.73;;;18.50;71.30;;;;;;7390184;19;19918;-75
2023/03/06 11:06:45;;;;;;;22.25;14.30;;;19.20;70.70;;;;;;7395814;19;20658;-74
2023/03/06 11:09:14;;;;;;;24.20;14.20;;;19.30;69.90;;;;;;7386605;19;19917;-74
2023/03/06 11:11:40;;;;;;;23.67;14.85;;;20.10;68.80;;;;;;7398221;19;19943;-75
2023/03/06 11:14:21;;;;;;;22.95;13.82;;;20.30;68.10;;;;;;7371479;19;19914;-75
2023/03/06 11:16:52;;;;;;;24.63;14.20;;;19.50;69.10;;;;;;7397045;19;19915;-74
2023/03/06 11:19:30;;;;;;;19.98;12.95;;;18.90;70.30;;;;;;7396915;19;19918;-75
2023/03/06 11:22:24;;;;;;;22.25;13.02;;;17.80;73.50;;;;;;7389776;19;19914;-75
2023/03/06 11:24:53;;;;;;;30.63;12.77;;;17.30;75.30;;;;;;7403572;19;19914;-74
2023/03/06 11:27:42;;;;;;;25.00;13.20;;;16.50;76.50;;;;;;7404993;19;20675;-74
2023/03/06 11:30:20;;;;;;;24.73;12.60;;;16.90;77.00;;;;;;7402915;19;19926;-74
2023/03/06 11:32:52;;;;;;;18.88;12.35;;;18.10;75.50;;;;;;7374312;19;19922;-75
2023/03/06 11:35:33;;;;;;;;;;;19.00;73.00;;;;;;7403613;19;19946;-74
2023/03/06 11:38:15;;;;;;;22.65;12.98;;;18.50;73.50;;;;;;7399158;19;19918;-74
2023/03/06 11:41:05;;;;;;;22.38;12.63;;;18.30;73.30;;;;;;7406296;19;19939;-73
2023/03/06 11:43:59;;;;;;;18.85;11.60;;;17.80;74.70;;;;;;7392838;19;19918;-74
2023/03/06 11:46:33;;;;;;;25.00;14.13;;;17.40;75.90;;;;;;7396029;19;20761;-74
2023/03/06 11:49:14;;;;;;;25.63;13.13;;;17.40;76.60;;;;;;7397057;19;20250;-74
2023/03/06 11:51:47;;;;;;;21.80;12.35;;;17.10;77.00;;;;;;7402666;19;19930;-74
2023/03/06 11:54:13;;;;;;;23.80;12.13;;;17.00;77.20;;;;;;7395565;19;19930;-74
2023/03/06 11:56:58;;;;;;;20.48;11.73;;;16.90;77.20;;;;;;7392898;19;19919;-74
2023/03/06 12:00:14;;;;;;;21.90;12.60;;;16.40;78.60;;;;;;7380608;19;19914;-76
2023/03/06 12:02:46;;;;;;;22.48;12.48;;;16.20;79.20;;;;;;7382068;19;19940;-73
2023/03/06 12:05:41;;;;;;;18.95;11.40;;;16.10;79.60;;;;;;7392450;19;20243;-75
2023/03/06 12:08:34;;;;;;;21.75;13.00;;;16.30;79.50;;;;;;7393105;19;19961;-73
2023/03/06 12:11:22;;;;;;;22.52;12.25;;;16.80;79.10;;;;;;7392501;19;19928;-74
2023/03/06 12:13:54;;;;;;;23.85;12.88;;;17.20;78.20;;;;;;7391891;19;19943;-74
2023/03/06 12:16:29;;;;;;;20.45;12.27;;;17.80;77.00;;;;;;7396999;19;20338;-74
2023/03/06 12:19:07;;;;;;;20.05;11.85;;;17.60;76.60;;;;;;7397340;19;19915;-75
2023/03/06 12:21:40;;;;;;;22.83;12.50;;;17.40;77.50;;;;;;7406455;19;19910;-73
2023/03/06 12:24:06;;;;;;;;;;;17.30;77.70;;;;;;7392783;19;19914;-74
2023/03/06 12:26:31;;;;;;;26.83;14.68;;;17.20;77.90;;;;;;7402921;19;19926;-74
2023/03/06 12:29:09;;;;;;;21.88;12.32;;;16.60;79.20;;;;;;7396415;19;19931;-74
2023/03/06 12:31:53;;;;;;;22.27;12.48;;;15.70;82.20;;;;;;7379149;19;20032;-74
2023/03/06 12:34:57;;;;;;;23.48;12.00;;;15.90;83.00;;;;;;7403290;19;19921;-74
2023/03/06 12:37:48;;;;;;;22.27;13.40;;;15.90;82.70;;;;;;7366798;19;19938;-75
2023/03/06 12:40:42;;;;;;;23.98;12.27;;;16.60;81.90;;;;;;7397388;19;19923;-75
2023/03/06 12:43:13;;;;;;;21.88;13.13;;;16.80;80.60;;;;;;7406493;19;19974;-75
2023/03/06 12:45:43;;;;;;;22.52;12.52;;;16.70;81.00;;;;;;7373029;19;19921;-75
2023/03/06 12:48:26;;;;;;;19.80;12.30;;;17.30;80.10;;;;;;7402190;19;19914;-74
2023/03/06 12:50:52;;;;;;;20.92;11.45;;;17.50;79.10;;;;;;7404370;19;20247;-74